Terminal Aerodrome Forecast
Issued by NWS Pittsburgh, PA

Current Version | Previous Version | Graphics & Text | Print | Product List | Glossary On
Versions: 1 2 3 4 5 6 7 8 9 10 11 12 13 14 15 16 17 18 19 20 21 22 23 24 25 26 27 28 29 30 31 32 33
000
FTUS41 KPBZ 042135 AAB
TAFPIT
TAF AMD
KPIT 042135Z 0422/0524 24013G21KT P6SM BKN250
     FM050000 22008KT P6SM -SHRA BKN070
     FM050400 23008KT P6SM OVC035
     FM051200 25007KT 5SM -SHRA BR OVC025=

USA.gov is the U.S. government's official web portal to all federal, state and local government web resources and services.